METAR Data
IDs: Format: Raw Decoded Include TAF

Data at: 2118 UTC 19 May 2019

KFLY 192115Z AUTO 17012G21KT 10SM BKN095 12/M03 A2994 RMK AO2 T01221030
KFLY 192055Z AUTO 17012G22KT 10SM CLR 13/M03 A2996 RMK AO2 T01251035
KFLY 192035Z AUTO 17015G25KT 10SM SCT100 14/M03 A2996 RMK AO2 T01351029
KFLY 192015Z AUTO 17015G23KT 10SM SCT110 14/M03 A2996 RMK AO2 T01381032
KFLY 191955Z AUTO 17014G23KT 10SM SCT095 14/M03 A2996 RMK AO2 T01351026
KFLY 191935Z AUTO 17015G22KT 10SM SCT095 13/M01 A2996 RMK AO2 T01291015
KFLY 191915Z AUTO 17012G23KT 120V180 10SM CLR 12/00 A2998 RMK AO2 T01241004
KFLY 191855Z AUTO 15014G20KT 10SM CLR 11/M01 A2998 RMK AO2 T01141007
KFLY 191835Z AUTO 15010G20KT 10SM CLR 11/00 A2999 RMK AO2 T01051004
KFLY 191815Z AUTO 15014G19KT 10SM CLR 10/00 A3000 RMK AO2 T01021001
KFLY 191755Z AUTO 16012G18KT 10SM SCT120 09/00 A3001 RMK AO2 T00900000 10092 20000
KFLY 191735Z AUTO 17010G20KT 130V200 10SM BKN120 09/00 A3001 RMK AO2 T00860001
KFLY 191715Z AUTO 18012G20KT 10SM SCT019 BKN120 09/00 A3001 RMK AO2 T00900002
KFLY 191655Z AUTO 15013G21KT 10SM SCT019 09/01 A3001 RMK AO2 T00910005
KFLY 191635Z AUTO 17010G21KT 130V190 10SM BKN017 08/01 A3002 RMK AO2 T00780007
KFLY 191615Z AUTO 19013G20KT 10SM BKN015 08/01 A3002 RMK AO2 T00760006
KFLY 191555Z AUTO 19012G20KT 150V210 10SM BKN015 08/01 A3001 RMK AO2 T00760008
KFLY 191535Z AUTO 22009G16KT 10SM OVC011 06/01 A3001 RMK AO2 T00610008
KFLY 191515Z AUTO 18010G18KT 10SM OVC009 05/02 A3003 RMK AO2 T00500019
KFLY 191455Z AUTO 21013G16KT 10SM OVC009 05/02 A3002 RMK AO2 T00460016
KFLY 191435Z AUTO 20013KT 10SM OVC007 04/02 A3002 RMK AO2 T00430019
KFLY 191415Z AUTO 21011G16KT 10SM OVC007 04/02 A3002 RMK AO2 T00370020
KFLY 191355Z AUTO 21012G16KT 10SM OVC007 03/02 A3002 RMK AO2 T00330018
KFLY 191335Z AUTO 21009G14KT 10SM OVC007 03/02 A3002 RMK AO2 T00330020
KFLY 191315Z AUTO 22008KT 10SM BKN009 OVC014 03/02 A3002 RMK AO2 T00300018
KFLY 191255Z AUTO 22006KT 10SM BKN010 OVC015 02/02 A3002 RMK AO2 T00240015
KFLY 191235Z AUTO 22004KT 10SM SCT012 OVC018 02/01 A3001 RMK AO2 T00170010
KFLY 191215Z AUTO 24005KT 10SM SCT012 OVC018 01/00 A3001 RMK AO2 T00070003
KFLY 191155Z AUTO 00000KT 10SM OVC018 00/00 A3000 RMK AO2 T00001001 10036 21021
KFLY 191135Z AUTO 00000KT 10SM OVC016 M01/M01 A3000 RMK AO2 T10081010
KFLY 191115Z AUTO 01003KT 2SM BR SCT001 OVC018 M02/M02 A3000 RMK AO2 VIS 3/4V5 T10181019
KFLY 191055Z AUTO 00000KT 2 1/2SM BR BKN001 OVC020 M01/M02 A2999 RMK AO2 VIS 3/4V5 T10151016
KFLY 191035Z AUTO 00000KT 1/4SM FZFG OVC001 M01/M01 A2999 RMK AO2 T10121015
KFLY 191015Z AUTO 04005KT 3SM BR BKN001 M01/M01 A2999 RMK AO2 T10101013
KFLY 190955Z AUTO 03005KT 1/4SM FZFG OVC001 00/M01 A2999 RMK AO2 T10041009
KFLY 190935Z AUTO 03010G16KT 10SM CLR 01/00 A2998 RMK AO2 T00050000
KFLY 190915Z AUTO 36005KT 10SM CLR 00/00 A2997 RMK AO2 T00031004
KFLY 190855Z AUTO 33005KT 10SM CLR 01/00 A2996 RMK AO2 T00081002
KFLY 190835Z AUTO 29006KT 10SM CLR 01/00 A2996 RMK AO2 T00081003
KFLY 190815Z AUTO 35006KT 10SM CLR 01/00 A2997 RMK AO2 T00120001
KFLY 190755Z AUTO 33004KT 10SM CLR 02/00 A2997 RMK AO2 T00170003
KFLY 190735Z AUTO 31005KT 10SM CLR 02/01 A2997 RMK AO2 T00240011
KFLY 190715Z AUTO 35005KT 10SM CLR 02/01 A2997 RMK AO2 T00240010
KFLY 190655Z AUTO 34004KT 10SM CLR 03/02 A2997 RMK AO2 T00300015 401360010
KFLY 190635Z AUTO 35009KT 10SM CLR 03/00 A2997 RMK AO2 T00300001
KFLY 190615Z AUTO 35005KT 10SM CLR 03/M02 A2996 RMK AO2 T00321020
KFLY 190555Z AUTO 36007KT 10SM CLR 04/M02 A2996 RMK AO2 T00371016 10100 20020
KFLY 190535Z AUTO 01006KT 10SM CLR 03/M01 A2996 RMK AO2 T00301015
KFLY 190515Z AUTO 36005KT 10SM CLR 03/M01 A2995 RMK AO2 T00331012
KFLY 190455Z AUTO 35005KT 10SM CLR 03/M01 A2995 RMK AO2 T00291015
KFLY 190435Z AUTO 02008KT 10SM CLR 02/M01 A2995 RMK AO2 T00211014
KFLY 190415Z AUTO 00000KT 10SM CLR 03/M01 A2995 RMK AO2 T00341010
KFLY 190355Z AUTO 36006KT 10SM CLR 04/M01 A2994 RMK AO2 T00351011
KFLY 190335Z AUTO 00000KT 10SM SCT085 04/M01 A2994 RMK AO2 T00431007
KFLY 190315Z AUTO 00000KT 10SM BKN085 04/M01 A2993 RMK AO2 T00431012
KFLY 190255Z AUTO 11003KT 10SM CLR 04/M02 A2991 RMK AO2 T00381016
KFLY 190235Z AUTO 02008KT 10SM CLR 05/M01 A2990 RMK AO2 T00521012
KFLY 190215Z AUTO 06003KT 10SM CLR 06/M01 A2988 RMK AO2 T00571011
KFLY 190155Z AUTO 28009KT 10SM CLR 07/M01 A2987 RMK AO2 T00721012
KFLY 190135Z AUTO 28008KT 10SM CLR 09/M01 A2987 RMK AO2 T00871011
KFLY 190115Z AUTO 27007KT 10SM CLR 09/M01 A2986 RMK AO2 T00931011
KFLY 190055Z AUTO 26009KT 10SM CLR 10/M01 A2985 RMK AO2 T01001011
KFLY 190035Z AUTO 27005KT 10SM SCT060 SCT070 SCT090 10/M01 A2985 RMK AO2 T00981006
KFLY 190015Z AUTO 00000KT 10SM SCT050 SCT070 BKN080 08/00 A2985 RMK AO2 T00801004
KFLY 182355Z AUTO 26005KT 10SM CLR 08/M01 A2988 RMK AO2 T00831007 10094 20060
KFLY 182335Z AUTO 00000KT 10SM CLR 08/00 A2987 RMK AO2 T00841003
KFLY 182315Z AUTO 05005KT 10SM CLR 09/00 A2987 RMK AO2 T00871002
KFLY 182255Z AUTO 06009G14KT 10SM SCT021 08/00 A2986 RMK AO2 T00751002
KFLY 182235Z AUTO 07012KT 10SM SCT021 SCT085 SCT110 07/00 A2986 RMK AO2 T00661001
KFLY 182215Z AUTO 07010G16KT 10SM SCT017 SCT085 SCT110 07/00 A2986 RMK AO2 T00740000
KFLY 182155Z AUTO 07013G18KT 10SM BKN015 08/01 A2985 RMK AO2 LTG DSNT SW T00840010
KFLY 182135Z AUTO 06015G20KT 10SM SCT017 09/01 A2985 RMK AO2 T00870007
KFLY 182115Z AUTO 06017G21KT 10SM SCT017 08/00 A2984 RMK AO2 LTG DSNT S AND SW T00810004
KFLY 182055Z AUTO 06017G22KT 10SM CLR 08/00 A2982 RMK AO2 LTG DSNT SW AND W T00831001
KFLY 182035Z AUTO 04018G21KT 10SM CLR 08/00 A2982 RMK AO2 T00841002
KFLY 182015Z AUTO 03018G25KT 10SM CLR 09/M01 A2982 RMK AO2 T00871015
KFLY 181955Z AUTO 02021G24KT 10SM SCT110 09/M03 A2982 RMK AO2 LTG DSNT NE T00911028
KFLY 181935Z AUTO 01008G16KT 10SM SCT055 SCT080 OVC100 09/M02 A2980 RMK AO2 LTG DSNT E AND W T00881024
KFLY 181915Z AUTO 05010G17KT 10SM SCT036 BKN065 OVC080 07/M02 A2980 RMK AO2 T00691017
KFLY 181855Z AUTO 05013G19KT 10SM SCT031 BKN050 OVC055 06/M02 A2979 RMK AO2 LTG DSNT E AND SE T00601024
KFLY 181835Z AUTO 03017G23KT 10SM SCT034 BKN048 OVC080 07/M03 A2980 RMK AO2 T00671035
KFLY 181815Z AUTO 03014G23KT 10SM BKN070 OVC085 08/M07 A2978 RMK AO2 LTG DSNT N T00841070
KFLY 181755Z AUTO 01010G22KT 10SM BKN070 OVC090 08/M05 A2977 RMK AO2 T00811054 10136 20010
KFLY 181735Z AUTO 02013G23KT 10SM SCT070 BKN075 OVC100 09/M05 A2977 RMK AO2 T00861055
KFLY 181715Z AUTO 26005KT 10SM SCT031 BKN070 OVC090 10/M10 A2976 RMK AO2 T01001098
KFLY 181655Z AUTO 31006G19KT 10SM SCT033 SCT060 OVC070 10/M08 A2976 RMK AO2 T00971082
KFLY 181635Z AUTO 33013G20KT 10SM OVC065 10/M06 A2976 RMK AO2 T00951062
KFLY 181615Z AUTO 34013G20KT 300V360 10SM SCT060 BKN075 11/M08 A2975 RMK AO2 T01081076
KFLY 181555Z AUTO 05003KT 10SM CLR 13/M06 A2976 RMK AO2 T01261057
KFLY 181535Z AUTO 36008KT 320V020 10SM CLR 11/M04 A2975 RMK AO2 T01121036
KFLY 181515Z AUTO 03005KT 10SM CLR 11/M02 A2977 RMK AO2 T01061019
KFLY 181455Z AUTO 05005KT 10SM CLR 10/M01 A2977 RMK AO2 T00961009
KFLY 181435Z AUTO 11006KT 10SM CLR 09/M01 A2978 RMK AO2 T00911012
KFLY 181415Z AUTO 15007KT 080V170 10SM CLR 09/M01 A2979 RMK AO2 T00851008
KFLY 181355Z AUTO 16005KT 10SM CLR 08/M01 A2978 RMK AO2 T00801011
KFLY 181335Z AUTO 00000KT 10SM CLR 06/M01 A2978 RMK AO2 T00631013
KFLY 181315Z AUTO 17005KT 10SM CLR 07/M01 A2978 RMK AO2 T00651011
KFLY 181255Z AUTO 00000KT 10SM CLR 06/M01 A2978 RMK AO2 T00551011
KFLY 181235Z AUTO 35003KT 10SM CLR 02/M03 A2978 RMK AO2 T00161027
KFLY 181215Z AUTO 00000KT 10SM CLR 02/M03 A2977 RMK AO2 T00201029
KFLY 181155Z AUTO 00000KT 10SM CLR 03/M03 A2977 RMK AO2 T00291030 10040 20010
KFLY 181135Z AUTO 34006KT 310V010 10SM CLR 03/M03 A2977 RMK AO2 T00311029
KFLY 181115Z AUTO 34004KT 10SM CLR 02/M03 A2977 RMK AO2 T00161031
KFLY 181055Z AUTO 28005KT 10SM CLR 02/M03 A2978 RMK AO2 T00171033
KFLY 181035Z AUTO 28005KT 10SM CLR 02/M04 A2977 RMK AO2 T00221041
KFLY 181015Z AUTO 26006KT 10SM CLR 03/M05 A2977 RMK AO2 T00321047
KFLY 180955Z AUTO 27006KT 10SM CLR 03/M06 A2977 RMK AO2 T00301063
KFLY 180935Z AUTO 28006KT 10SM CLR 03/M06 A2977 RMK AO2 T00291061